Lakewood, CO

10:37 AM MST on January 29, 2015 (GMT -0700)
Buckley Air Force Base | Change Station
CLOSE
Current Station
Airport
Location: Aurora,
Elevation: 5663 ft
Nearby Weather Stations

Elev 5663 ft 39.71 °N, 104.76 °W | Updated 39 minutes ago

Overcast
Overcast
37 °F
Feels Like 37 °F
N
1
Wind Variable Wind from ENE

Today
High -- | Low -- °F
--% Chance of Precip.
Yesterday
High -- | Low -- °F
Precip. -- in
7:11 AM 5:16 PM
Waxing Gibbous, 76% visible
Pressure 30.55 in
Visibility 10.0 miles
Clouds Overcast 5000 ft
Dew Point 24 °F
Humidity 61%
Rainfall 0.00 in
Snow Depth Not available.
UV 1 out of 12
Pollen .30 out of 12
Air Quality Not available.
Flu Activity Not available.
METAR KBKF 291658Z 06001KT 10SM OVC050 03/M04 A3052 RMK AO2A SLP343 T00261043

More Conditions Fewer Conditions

Pressure 30.55 in
Visibility 10.0 miles
Clouds Overcast 5000 ft
Dew Point 24 °F
Humidity 61%
Rainfall 0.00 in
Snow Depth Not available.
UV 1 out of 12
Pollen .30 out of 12
Air Quality Not available.
Flu Activity Not available.
METAR KBKF 291658Z 06001KT 10SM OVC050 03/M04 A3052 RMK AO2A SLP343 T00261043

More Conditions Fewer Conditions

10-Day Weather Forecast

Almanac

Astronomy

Jan. 29, 2015 Rise Set
Actual Time
Civil Twilight
Nautical Twilight
Astronomical Twilight
Moon
Length of Visible Light
Length of Day
Tomorrow will be .
, % of the Moon is Illuminated

Today's Extremes

State Highs State Lows

Community

WunderPhotos

Upload Photos

1,791,484 photos uploaded!

WunderBlogs® & News

Nearby

Air Quality

  Air Quality AQ Index Pollutant
Not available.

Snow Depth

Station Depth Elevation

Earthquake Activity

City Distance Mag. Time & Date
Minimum magnitude displayed is 2.5.

Coastal Water Temperatures

Place Temperature

Nearby Weather Stations